sensor_id;sensor_type;location;lat;lon;timestamp;temperature;humidity
9919;DHT22;4998;51.024;13.828;2023-06-24T00:00:55;20.30;99.90
9919;DHT22;4998;51.024;13.828;2023-06-24T00:03:22;20.30;99.90
9919;DHT22;4998;51.024;13.828;2023-06-24T00:05:49;20.30;99.90
9919;DHT22;4998;51.024;13.828;2023-06-24T00:08:16;20.30;99.90
9919;DHT22;4998;51.024;13.828;2023-06-24T00:10:45;20.30;99.90
9919;DHT22;4998;51.024;13.828;2023-06-24T00:13:15;20.30;99.90
9919;DHT22;4998;51.024;13.828;2023-06-24T00:15:43;20.30;99.90
9919;DHT22;4998;51.024;13.828;2023-06-24T00:18:10;20.30;99.90
9919;DHT22;4998;51.024;13.828;2023-06-24T00:20:37;20.30;99.90
9919;DHT22;4998;51.024;13.828;2023-06-24T00:23:05;20.30;99.90
9919;DHT22;4998;51.024;13.828;2023-06-24T00:25:32;20.30;99.90
9919;DHT22;4998;51.024;13.828;2023-06-24T00:27:59;20.30;99.90
9919;DHT22;4998;51.024;13.828;2023-06-24T00:30:28;20.30;99.90
9919;DHT22;4998;51.024;13.828;2023-06-24T00:32:55;20.30;99.90
9919;DHT22;4998;51.024;13.828;2023-06-24T00:35:22;20.30;99.90
9919;DHT22;4998;51.024;13.828;2023-06-24T00:37:49;20.30;99.90
9919;DHT22;4998;51.024;13.828;2023-06-24T00:40:16;20.30;99.90
9919;DHT22;4998;51.024;13.828;2023-06-24T00:42:44;20.30;99.90
9919;DHT22;4998;51.024;13.828;2023-06-24T00:45:11;20.30;99.90
9919;DHT22;4998;51.024;13.828;2023-06-24T00:47:40;20.30;99.90
9919;DHT22;4998;51.024;13.828;2023-06-24T00:50:08;20.30;99.90
9919;DHT22;4998;51.024;13.828;2023-06-24T00:52:37;20.30;99.90
9919;DHT22;4998;51.024;13.828;2023-06-24T00:55:08;20.30;99.90
9919;DHT22;4998;51.024;13.828;2023-06-24T00:57:37;20.30;99.90
9919;DHT22;4998;51.024;13.828;2023-06-24T01:00:05;20.30;99.90
9919;DHT22;4998;51.024;13.828;2023-06-24T01:02:35;20.40;99.90
9919;DHT22;4998;51.024;13.828;2023-06-24T01:05:05;20.30;99.90
9919;DHT22;4998;51.024;13.828;2023-06-24T01:07:34;20.40;99.90
9919;DHT22;4998;51.024;13.828;2023-06-24T01:10:02;20.40;99.90
9919;DHT22;4998;51.024;13.828;2023-06-24T01:12:32;20.40;99.90
9919;DHT22;4998;51.024;13.828;2023-06-24T01:15:00;20.30;99.90
9919;DHT22;4998;51.024;13.828;2023-06-24T01:17:33;20.40;99.90
9919;DHT22;4998;51.024;13.828;2023-06-24T01:20:07;20.40;99.90
9919;DHT22;4998;51.024;13.828;2023-06-24T01:23:04;20.40;99.90
9919;DHT22;4998;51.024;13.828;2023-06-24T01:25:44;20.40;99.90
9919;DHT22;4998;51.024;13.828;2023-06-24T01:28:23;20.40;99.90
9919;DHT22;4998;51.024;13.828;2023-06-24T01:33:45;20.40;99.90
9919;DHT22;4998;51.024;13.828;2023-06-24T01:36:15;20.40;99.90
9919;DHT22;4998;51.024;13.828;2023-06-24T01:38:48;20.40;99.90
9919;DHT22;4998;51.024;13.828;2023-06-24T01:41:22;20.40;99.90
9919;DHT22;4998;51.024;13.828;2023-06-24T01:43:52;20.50;99.90
9919;DHT22;4998;51.024;13.828;2023-06-24T01:46:21;20.50;99.90
9919;DHT22;4998;51.024;13.828;2023-06-24T01:48:53;20.50;99.90
9919;DHT22;4998;51.024;13.828;2023-06-24T01:51:22;20.50;99.90
9919;DHT22;4998;51.024;13.828;2023-06-24T01:53:54;20.60;99.90
9919;DHT22;4998;51.024;13.828;2023-06-24T01:56:26;20.60;99.90
9919;DHT22;4998;51.024;13.828;2023-06-24T01:58:56;20.60;99.90
9919;DHT22;4998;51.024;13.828;2023-06-24T02:01:25;20.60;99.90
9919;DHT22;4998;51.024;13.828;2023-06-24T02:03:54;20.60;99.90
9919;DHT22;4998;51.024;13.828;2023-06-24T02:06:24;20.60;99.90
9919;DHT22;4998;51.024;13.828;2023-06-24T02:08:53;20.60;99.90
9919;DHT22;4998;51.024;13.828;2023-06-24T02:11:21;20.60;99.90
9919;DHT22;4998;51.024;13.828;2023-06-24T02:13:51;20.60;99.90
9919;DHT22;4998;51.024;13.828;2023-06-24T02:16:18;20.60;99.90
9919;DHT22;4998;51.024;13.828;2023-06-24T02:18:46;20.60;99.90
9919;DHT22;4998;51.024;13.828;2023-06-24T02:21:17;20.60;99.90
9919;DHT22;4998;51.024;13.828;2023-06-24T02:23:46;20.60;99.90
9919;DHT22;4998;51.024;13.828;2023-06-24T02:26:13;20.60;99.90
9919;DHT22;4998;51.024;13.828;2023-06-24T02:28:42;20.70;99.90
9919;DHT22;4998;51.024;13.828;2023-06-24T02:31:12;20.70;99.90
9919;DHT22;4998;51.024;13.828;2023-06-24T02:33:40;20.70;99.90
9919;DHT22;4998;51.024;13.828;2023-06-24T02:36:07;20.60;99.90
9919;DHT22;4998;51.024;13.828;2023-06-24T02:38:35;20.70;99.90
9919;DHT22;4998;51.024;13.828;2023-06-24T02:41:02;20.70;99.90
9919;DHT22;4998;51.024;13.828;2023-06-24T02:43:30;20.70;99.90
9919;DHT22;4998;51.024;13.828;2023-06-24T02:45:58;20.70;99.90
9919;DHT22;4998;51.024;13.828;2023-06-24T02:48:26;20.70;99.90
9919;DHT22;4998;51.024;13.828;2023-06-24T02:50:55;20.70;99.90
9919;DHT22;4998;51.024;13.828;2023-06-24T02:53:22;20.70;99.90
9919;DHT22;4998;51.024;13.828;2023-06-24T02:55:51;20.70;99.90
9919;DHT22;4998;51.024;13.828;2023-06-24T02:58:20;20.70;99.90
9919;DHT22;4998;51.024;13.828;2023-06-24T03:00:47;20.70;99.90
9919;DHT22;4998;51.024;13.828;2023-06-24T03:03:15;20.70;99.90
9919;DHT22;4998;51.024;13.828;2023-06-24T03:05:43;20.70;99.90
9919;DHT22;4998;51.024;13.828;2023-06-24T03:08:14;20.80;99.90
9919;DHT22;4998;51.024;13.828;2023-06-24T03:10:41;20.80;99.90
9919;DHT22;4998;51.024;13.828;2023-06-24T03:13:10;20.80;99.90
9919;DHT22;4998;51.024;13.828;2023-06-24T03:15:37;20.80;99.90
9919;DHT22;4998;51.024;13.828;2023-06-24T03:18:04;20.80;99.90
9919;DHT22;4998;51.024;13.828;2023-06-24T03:20:31;20.80;99.90
9919;DHT22;4998;51.024;13.828;2023-06-24T03:23:05;20.90;99.90
9919;DHT22;4998;51.024;13.828;2023-06-24T03:25:32;20.90;99.90
9919;DHT22;4998;51.024;13.828;2023-06-24T03:27:59;20.90;99.90
9919;DHT22;4998;51.024;13.828;2023-06-24T03:30:28;20.90;99.90
9919;DHT22;4998;51.024;13.828;2023-06-24T03:32:55;20.90;99.90
9919;DHT22;4998;51.024;13.828;2023-06-24T03:35:23;20.90;99.90
9919;DHT22;4998;51.024;13.828;2023-06-24T03:37:50;21.00;99.90
9919;DHT22;4998;51.024;13.828;2023-06-24T03:40:17;21.00;99.90
9919;DHT22;4998;51.024;13.828;2023-06-24T03:42:44;21.00;99.90
9919;DHT22;4998;51.024;13.828;2023-06-24T03:45:11;21.00;99.90
9919;DHT22;4998;51.024;13.828;2023-06-24T03:47:39;21.00;99.90
9919;DHT22;4998;51.024;13.828;2023-06-24T03:50:07;21.00;99.90
9919;DHT22;4998;51.024;13.828;2023-06-24T03:52:34;21.00;99.90
9919;DHT22;4998;51.024;13.828;2023-06-24T03:55:01;21.00;99.90
9919;DHT22;4998;51.024;13.828;2023-06-24T03:57:29;21.10;99.90
9919;DHT22;4998;51.024;13.828;2023-06-24T03:59:56;21.10;99.90
9919;DHT22;4998;51.024;13.828;2023-06-24T04:02:23;21.00;99.90
9919;DHT22;4998;51.024;13.828;2023-06-24T04:04:53;21.00;99.90
9919;DHT22;4998;51.024;13.828;2023-06-24T04:07:21;21.00;99.90
9919;DHT22;4998;51.024;13.828;2023-06-24T04:09:54;21.20;99.90
9919;DHT22;4998;51.024;13.828;2023-06-24T04:12:22;21.00;99.90
9919;DHT22;4998;51.024;13.828;2023-06-24T04:14:49;21.00;99.90
9919;DHT22;4998;51.024;13.828;2023-06-24T04:17:16;21.00;99.90
9919;DHT22;4998;51.024;13.828;2023-06-24T04:19:43;21.00;99.90
9919;DHT22;4998;51.024;13.828;2023-06-24T04:22:11;21.00;99.90
9919;DHT22;4998;51.024;13.828;2023-06-24T04:24:38;21.00;99.90
9919;DHT22;4998;51.024;13.828;2023-06-24T04:27:07;21.00;99.90
9919;DHT22;4998;51.024;13.828;2023-06-24T04:29:34;21.00;99.90
9919;DHT22;4998;51.024;13.828;2023-06-24T04:32:01;21.00;99.90
9919;DHT22;4998;51.024;13.828;2023-06-24T04:34:28;21.00;99.90
9919;DHT22;4998;51.024;13.828;2023-06-24T04:36:55;20.90;99.90
9919;DHT22;4998;51.024;13.828;2023-06-24T04:39:23;20.90;99.90
9919;DHT22;4998;51.024;13.828;2023-06-24T04:41:50;20.90;99.90
9919;DHT22;4998;51.024;13.828;2023-06-24T04:44:17;20.90;99.90
9919;DHT22;4998;51.024;13.828;2023-06-24T04:46:45;20.90;99.90
9919;DHT22;4998;51.024;13.828;2023-06-24T04:49:12;20.90;99.90
9919;DHT22;4998;51.024;13.828;2023-06-24T04:51:40;20.90;99.90
9919;DHT22;4998;51.024;13.828;2023-06-24T04:54:09;20.90;99.90
9919;DHT22;4998;51.024;13.828;2023-06-24T04:56:39;21.00;99.90
9919;DHT22;4998;51.024;13.828;2023-06-24T04:59:06;21.00;99.90
9919;DHT22;4998;51.024;13.828;2023-06-24T05:01:33;21.00;99.90
9919;DHT22;4998;51.024;13.828;2023-06-24T05:04:00;21.10;99.90
9919;DHT22;4998;51.024;13.828;2023-06-24T05:06:27;21.10;99.90
9919;DHT22;4998;51.024;13.828;2023-06-24T05:08:54;21.20;99.90
9919;DHT22;4998;51.024;13.828;2023-06-24T05:11:21;21.20;99.90
9919;DHT22;4998;51.024;13.828;2023-06-24T05:13:49;21.20;99.90
9919;DHT22;4998;51.024;13.828;2023-06-24T05:16:16;21.20;99.90
9919;DHT22;4998;51.024;13.828;2023-06-24T05:18:44;21.20;99.90
9919;DHT22;4998;51.024;13.828;2023-06-24T05:21:11;21.20;99.90
9919;DHT22;4998;51.024;13.828;2023-06-24T05:23:38;21.20;99.90
9919;DHT22;4998;51.024;13.828;2023-06-24T05:26:05;21.20;99.90
9919;DHT22;4998;51.024;13.828;2023-06-24T05:28:32;21.20;99.90
9919;DHT22;4998;51.024;13.828;2023-06-24T05:31:00;21.20;99.90
9919;DHT22;4998;51.024;13.828;2023-06-24T05:33:27;21.20;99.90
9919;DHT22;4998;51.024;13.828;2023-06-24T05:35:54;21.20;99.90
9919;DHT22;4998;51.024;13.828;2023-06-24T05:38:21;21.20;99.90
9919;DHT22;4998;51.024;13.828;2023-06-24T05:40:48;21.20;99.90
9919;DHT22;4998;51.024;13.828;2023-06-24T05:43:15;21.20;99.90
9919;DHT22;4998;51.024;13.828;2023-06-24T05:45:42;21.20;99.90
9919;DHT22;4998;51.024;13.828;2023-06-24T05:48:11;21.20;99.90
9919;DHT22;4998;51.024;13.828;2023-06-24T05:50:38;21.20;99.90
9919;DHT22;4998;51.024;13.828;2023-06-24T05:53:05;21.20;99.90
9919;DHT22;4998;51.024;13.828;2023-06-24T05:55:32;21.20;99.90
9919;DHT22;4998;51.024;13.828;2023-06-24T05:57:58;21.20;99.90
9919;DHT22;4998;51.024;13.828;2023-06-24T06:00:25;21.20;99.90
9919;DHT22;4998;51.024;13.828;2023-06-24T06:02:52;21.20;99.90
9919;DHT22;4998;51.024;13.828;2023-06-24T06:05:21;21.20;99.90
9919;DHT22;4998;51.024;13.828;2023-06-24T06:07:48;21.10;99.90
9919;DHT22;4998;51.024;13.828;2023-06-24T06:10:15;21.10;99.90
9919;DHT22;4998;51.024;13.828;2023-06-24T06:12:43;21.10;99.90
9919;DHT22;4998;51.024;13.828;2023-06-24T06:15:10;21.20;99.90
9919;DHT22;4998;51.024;13.828;2023-06-24T06:17:37;21.10;99.90
9919;DHT22;4998;51.024;13.828;2023-06-24T06:20:05;21.10;99.90
9919;DHT22;4998;51.024;13.828;2023-06-24T06:22:34;21.10;99.90
9919;DHT22;4998;51.024;13.828;2023-06-24T06:25:04;21.10;99.90
9919;DHT22;4998;51.024;13.828;2023-06-24T06:27:31;21.10;99.90
9919;DHT22;4998;51.024;13.828;2023-06-24T06:29:58;21.10;99.90
9919;DHT22;4998;51.024;13.828;2023-06-24T06:32:26;21.10;99.90
9919;DHT22;4998;51.024;13.828;2023-06-24T06:34:53;21.10;99.90
9919;DHT22;4998;51.024;13.828;2023-06-24T06:37:20;21.10;99.90
9919;DHT22;4998;51.024;13.828;2023-06-24T06:39:48;21.10;99.90
9919;DHT22;4998;51.024;13.828;2023-06-24T06:42:15;21.00;99.90
9919;DHT22;4998;51.024;13.828;2023-06-24T06:44:42;21.00;99.90
9919;DHT22;4998;51.024;13.828;2023-06-24T06:47:10;21.00;99.90
9919;DHT22;4998;51.024;13.828;2023-06-24T06:49:37;20.90;99.90
9919;DHT22;4998;51.024;13.828;2023-06-24T06:52:05;20.90;99.90
9919;DHT22;4998;51.024;13.828;2023-06-24T06:54:33;20.90;99.90
9919;DHT22;4998;51.024;13.828;2023-06-24T06:57:02;20.90;99.90
9919;DHT22;4998;51.024;13.828;2023-06-24T06:59:29;20.90;99.90
9919;DHT22;4998;51.024;13.828;2023-06-24T07:01:56;20.90;99.90
9919;DHT22;4998;51.024;13.828;2023-06-24T07:04:23;20.90;99.90
9919;DHT22;4998;51.024;13.828;2023-06-24T07:06:50;20.90;99.90
9919;DHT22;4998;51.024;13.828;2023-06-24T07:09:19;20.90;99.90
9919;DHT22;4998;51.024;13.828;2023-06-24T07:11:46;20.90;99.90
9919;DHT22;4998;51.024;13.828;2023-06-24T07:14:14;20.90;99.90
9919;DHT22;4998;51.024;13.828;2023-06-24T07:16:41;20.90;99.90
9919;DHT22;4998;51.024;13.828;2023-06-24T07:19:08;20.80;99.90
9919;DHT22;4998;51.024;13.828;2023-06-24T07:21:35;20.80;99.90
9919;DHT22;4998;51.024;13.828;2023-06-24T07:24:02;20.80;99.90
9919;DHT22;4998;51.024;13.828;2023-06-24T07:26:30;20.80;99.90
9919;DHT22;4998;51.024;13.828;2023-06-24T07:28:57;20.80;99.90
9919;DHT22;4998;51.024;13.828;2023-06-24T07:31:26;20.80;99.90
9919;DHT22;4998;51.024;13.828;2023-06-24T07:33:53;20.80;99.90
9919;DHT22;4998;51.024;13.828;2023-06-24T07:36:20;20.80;99.90
9919;DHT22;4998;51.024;13.828;2023-06-24T07:38:47;20.80;99.90
9919;DHT22;4998;51.024;13.828;2023-06-24T07:41:14;20.80;99.90
9919;DHT22;4998;51.024;13.828;2023-06-24T07:43:41;20.80;99.90
9919;DHT22;4998;51.024;13.828;2023-06-24T07:46:08;20.90;99.90
9919;DHT22;4998;51.024;13.828;2023-06-24T07:48:36;20.90;99.90
9919;DHT22;4998;51.024;13.828;2023-06-24T07:51:03;20.90;99.90
9919;DHT22;4998;51.024;13.828;2023-06-24T07:53:30;20.90;99.90
9919;DHT22;4998;51.024;13.828;2023-06-24T07:55:59;21.00;99.90
9919;DHT22;4998;51.024;13.828;2023-06-24T07:58:26;21.00;99.90
9919;DHT22;4998;51.024;13.828;2023-06-24T08:00:53;21.10;99.90
9919;DHT22;4998;51.024;13.828;2023-06-24T08:03:20;21.10;99.90
9919;DHT22;4998;51.024;13.828;2023-06-24T08:05:48;21.20;99.90
9919;DHT22;4998;51.024;13.828;2023-06-24T08:08:16;21.20;99.90
9919;DHT22;4998;51.024;13.828;2023-06-24T08:10:45;21.30;99.90
9919;DHT22;4998;51.024;13.828;2023-06-24T08:13:12;21.40;99.90
9919;DHT22;4998;51.024;13.828;2023-06-24T08:15:39;21.50;99.90
9919;DHT22;4998;51.024;13.828;2023-06-24T08:18:06;21.60;99.90
9919;DHT22;4998;51.024;13.828;2023-06-24T08:20:33;21.70;99.90
9919;DHT22;4998;51.024;13.828;2023-06-24T08:23:01;21.80;99.90
9919;DHT22;4998;51.024;13.828;2023-06-24T08:25:48;21.80;99.90
9919;DHT22;4998;51.024;13.828;2023-06-24T08:28:14;21.90;99.90
9919;DHT22;4998;51.024;13.828;2023-06-24T08:30:59;21.90;99.90
9919;DHT22;4998;51.024;13.828;2023-06-24T08:33:26;22.00;99.90
9919;DHT22;4998;51.024;13.828;2023-06-24T08:35:52;22.00;99.90
9919;DHT22;4998;51.024;13.828;2023-06-24T08:38:21;22.00;99.90
9919;DHT22;4998;51.024;13.828;2023-06-24T08:40:49;22.10;99.90
9919;DHT22;4998;51.024;13.828;2023-06-24T08:43:16;22.10;99.90
9919;DHT22;4998;51.024;13.828;2023-06-24T08:45:43;22.20;99.90
9919;DHT22;4998;51.024;13.828;2023-06-24T08:48:41;22.20;99.90
9919;DHT22;4998;51.024;13.828;2023-06-24T08:51:09;22.20;99.60
9919;DHT22;4998;51.024;13.828;2023-06-24T08:53:42;22.30;99.60
9919;DHT22;4998;51.024;13.828;2023-06-24T08:56:10;22.30;99.20
9919;DHT22;4998;51.024;13.828;2023-06-24T08:58:37;22.40;99.20
9919;DHT22;4998;51.024;13.828;2023-06-24T09:01:06;22.40;99.10
9919;DHT22;4998;51.024;13.828;2023-06-24T09:03:33;22.50;98.50
9919;DHT22;4998;51.024;13.828;2023-06-24T09:06:01;22.50;98.60
9919;DHT22;4998;51.024;13.828;2023-06-24T09:08:28;22.60;98.20
9919;DHT22;4998;51.024;13.828;2023-06-24T09:10:56;22.60;98.00
9919;DHT22;4998;51.024;13.828;2023-06-24T09:13:33;22.70;97.60
9919;DHT22;4998;51.024;13.828;2023-06-24T09:16:11;22.70;97.40
9919;DHT22;4998;51.024;13.828;2023-06-24T09:18:39;22.80;97.20
9919;DHT22;4998;51.024;13.828;2023-06-24T09:21:07;22.80;97.40
9919;DHT22;4998;51.024;13.828;2023-06-24T09:23:35;22.80;96.70
9919;DHT22;4998;51.024;13.828;2023-06-24T09:26:06;22.90;96.10
9919;DHT22;4998;51.024;13.828;2023-06-24T09:28:36;22.90;95.70
9919;DHT22;4998;51.024;13.828;2023-06-24T09:31:06;23.00;96.00
9919;DHT22;4998;51.024;13.828;2023-06-24T09:33:34;23.10;95.00
9919;DHT22;4998;51.024;13.828;2023-06-24T09:36:02;23.20;95.00
9919;DHT22;4998;51.024;13.828;2023-06-24T09:38:34;23.30;94.50
9919;DHT22;4998;51.024;13.828;2023-06-24T09:41:04;23.30;94.00
9919;DHT22;4998;51.024;13.828;2023-06-24T09:43:33;23.30;93.70
9919;DHT22;4998;51.024;13.828;2023-06-24T09:46:01;23.40;92.80
9919;DHT22;4998;51.024;13.828;2023-06-24T09:48:29;23.50;92.90
9919;DHT22;4998;51.024;13.828;2023-06-24T09:50:59;23.50;92.40
9919;DHT22;4998;51.024;13.828;2023-06-24T09:53:28;23.60;92.50
9919;DHT22;4998;51.024;13.828;2023-06-24T09:55:57;23.60;92.10
9919;DHT22;4998;51.024;13.828;2023-06-24T09:58:27;23.70;91.40
9919;DHT22;4998;51.024;13.828;2023-06-24T10:00:55;23.70;90.70
9919;DHT22;4998;51.024;13.828;2023-06-24T10:03:22;23.80;90.60
9919;DHT22;4998;51.024;13.828;2023-06-24T10:05:50;23.80;90.50
9919;DHT22;4998;51.024;13.828;2023-06-24T10:08:17;23.90;90.60
9919;DHT22;4998;51.024;13.828;2023-06-24T10:10:46;24.00;90.50
9919;DHT22;4998;51.024;13.828;2023-06-24T10:13:13;24.00;90.40
9919;DHT22;4998;51.024;13.828;2023-06-24T10:15:41;24.10;88.90
9919;DHT22;4998;51.024;13.828;2023-06-24T10:18:33;24.10;88.40
9919;DHT22;4998;51.024;13.828;2023-06-24T10:21:00;24.20;87.00
9919;DHT22;4998;51.024;13.828;2023-06-24T10:23:31;24.20;86.40
9919;DHT22;4998;51.024;13.828;2023-06-24T10:25:58;24.20;84.70
9919;DHT22;4998;51.024;13.828;2023-06-24T10:28:25;24.30;85.40
9919;DHT22;4998;51.024;13.828;2023-06-24T10:30:57;24.30;84.90
9919;DHT22;4998;51.024;13.828;2023-06-24T10:33:24;24.30;82.40
9919;DHT22;4998;51.024;13.828;2023-06-24T10:35:51;24.30;82.90
9919;DHT22;4998;51.024;13.828;2023-06-24T10:38:18;24.30;82.80
9919;DHT22;4998;51.024;13.828;2023-06-24T10:40:49;24.30;82.00
9919;DHT22;4998;51.024;13.828;2023-06-24T10:43:26;24.40;81.20
9919;DHT22;4998;51.024;13.828;2023-06-24T10:45:57;24.40;81.10
9919;DHT22;4998;51.024;13.828;2023-06-24T10:48:24;24.40;79.40
9919;DHT22;4998;51.024;13.828;2023-06-24T10:50:51;24.30;79.90
9919;DHT22;4998;51.024;13.828;2023-06-24T10:53:18;24.30;80.30
9919;DHT22;4998;51.024;13.828;2023-06-24T10:55:46;24.30;79.00
9919;DHT22;4998;51.024;13.828;2023-06-24T10:58:14;24.30;79.50
9919;DHT22;4998;51.024;13.828;2023-06-24T11:00:42;24.30;79.90
9919;DHT22;4998;51.024;13.828;2023-06-24T11:03:13;24.20;79.70
9919;DHT22;4998;51.024;13.828;2023-06-24T11:05:41;24.30;77.60
9919;DHT22;4998;51.024;13.828;2023-06-24T11:08:09;24.20;77.20
9919;DHT22;4998;51.024;13.828;2023-06-24T11:10:43;24.30;76.80
9919;DHT22;4998;51.024;13.828;2023-06-24T11:13:11;24.20;76.20
9919;DHT22;4998;51.024;13.828;2023-06-24T11:15:38;24.30;77.00
9919;DHT22;4998;51.024;13.828;2023-06-24T11:18:08;24.30;77.40
9919;DHT22;4998;51.024;13.828;2023-06-24T11:20:38;24.40;77.50
9919;DHT22;4998;51.024;13.828;2023-06-24T11:23:07;24.40;75.80
9919;DHT22;4998;51.024;13.828;2023-06-24T11:25:39;24.50;76.30
9919;DHT22;4998;51.024;13.828;2023-06-24T11:28:13;24.60;75.80
9919;DHT22;4998;51.024;13.828;2023-06-24T11:30:40;24.60;76.10
9919;DHT22;4998;51.024;13.828;2023-06-24T11:33:07;24.70;75.90
9919;DHT22;4998;51.024;13.828;2023-06-24T11:35:34;24.80;74.90
9919;DHT22;4998;51.024;13.828;2023-06-24T11:38:04;24.80;76.00
9919;DHT22;4998;51.024;13.828;2023-06-24T11:40:31;24.80;74.20
9919;DHT22;4998;51.024;13.828;2023-06-24T11:43:00;24.90;74.60
9919;DHT22;4998;51.024;13.828;2023-06-24T11:45:27;25.00;74.60
9919;DHT22;4998;51.024;13.828;2023-06-24T11:48:01;25.10;75.20
9919;DHT22;4998;51.024;13.828;2023-06-24T11:50:30;25.20;73.70
9919;DHT22;4998;51.024;13.828;2023-06-24T11:52:57;25.20;73.70
9919;DHT22;4998;51.024;13.828;2023-06-24T11:55:27;25.30;72.20
9919;DHT22;4998;51.024;13.828;2023-06-24T11:57:56;25.40;71.20
9919;DHT22;4998;51.024;13.828;2023-06-24T12:00:24;25.40;71.50
9919;DHT22;4998;51.024;13.828;2023-06-24T12:02:56;25.40;71.30
9919;DHT22;4998;51.024;13.828;2023-06-24T12:05:25;25.40;71.20
9919;DHT22;4998;51.024;13.828;2023-06-24T12:07:57;25.40;70.60
9919;DHT22;4998;51.024;13.828;2023-06-24T12:10:27;25.50;71.00
9919;DHT22;4998;51.024;13.828;2023-06-24T12:12:55;25.50;71.50
9919;DHT22;4998;51.024;13.828;2023-06-24T12:15:22;25.50;70.70
9919;DHT22;4998;51.024;13.828;2023-06-24T12:17:49;25.60;70.80
9919;DHT22;4998;51.024;13.828;2023-06-24T12:20:16;25.60;70.30
9919;DHT22;4998;51.024;13.828;2023-06-24T12:22:44;25.70;70.50
9919;DHT22;4998;51.024;13.828;2023-06-24T12:25:11;25.70;70.50
9919;DHT22;4998;51.024;13.828;2023-06-24T12:27:42;25.80;71.00
9919;DHT22;4998;51.024;13.828;2023-06-24T12:30:10;25.80;69.60
9919;DHT22;4998;51.024;13.828;2023-06-24T12:32:37;25.90;69.00
9919;DHT22;4998;51.024;13.828;2023-06-24T12:35:05;25.90;68.60
9919;DHT22;4998;51.024;13.828;2023-06-24T12:37:34;25.90;67.70
9919;DHT22;4998;51.024;13.828;2023-06-24T12:40:02;25.90;66.90
9919;DHT22;4998;51.024;13.828;2023-06-24T12:42:29;25.80;66.50
9919;DHT22;4998;51.024;13.828;2023-06-24T12:44:59;25.80;66.70
9919;DHT22;4998;51.024;13.828;2023-06-24T12:47:27;25.80;66.80
9919;DHT22;4998;51.024;13.828;2023-06-24T12:49:54;25.80;66.80
9919;DHT22;4998;51.024;13.828;2023-06-24T12:52:21;25.80;66.80
9919;DHT22;4998;51.024;13.828;2023-06-24T12:54:48;25.80;66.80
9919;DHT22;4998;51.024;13.828;2023-06-24T12:57:15;25.80;66.20
9919;DHT22;4998;51.024;13.828;2023-06-24T12:59:42;25.80;66.30
9919;DHT22;4998;51.024;13.828;2023-06-24T13:02:10;25.80;66.30
9919;DHT22;4998;51.024;13.828;2023-06-24T13:04:37;25.80;65.90
9919;DHT22;4998;51.024;13.828;2023-06-24T13:07:05;25.80;66.00
9919;DHT22;4998;51.024;13.828;2023-06-24T13:09:32;25.90;65.70
9919;DHT22;4998;51.024;13.828;2023-06-24T13:11:59;25.90;65.10
9919;DHT22;4998;51.024;13.828;2023-06-24T13:14:26;25.90;64.70
9919;DHT22;4998;51.024;13.828;2023-06-24T13:16:54;25.90;64.60
9919;DHT22;4998;51.024;13.828;2023-06-24T13:19:22;26.00;64.70
9919;DHT22;4998;51.024;13.828;2023-06-24T13:21:49;26.00;64.10
9919;DHT22;4998;51.024;13.828;2023-06-24T13:24:17;26.10;63.90
9919;DHT22;4998;51.024;13.828;2023-06-24T13:26:44;26.10;63.80
9919;DHT22;4998;51.024;13.828;2023-06-24T13:29:11;26.10;64.10
9919;DHT22;4998;51.024;13.828;2023-06-24T13:31:38;26.10;64.10
9919;DHT22;4998;51.024;13.828;2023-06-24T13:34:06;26.20;63.60
9919;DHT22;4998;51.024;13.828;2023-06-24T13:36:36;26.30;63.10
9919;DHT22;4998;51.024;13.828;2023-06-24T13:39:04;26.30;63.00
9919;DHT22;4998;51.024;13.828;2023-06-24T13:41:32;26.30;63.00
9919;DHT22;4998;51.024;13.828;2023-06-24T13:44:00;26.40;63.20
9919;DHT22;4998;51.024;13.828;2023-06-24T13:46:28;26.50;62.10
9919;DHT22;4998;51.024;13.828;2023-06-24T13:48:55;26.50;61.50
9919;DHT22;4998;51.024;13.828;2023-06-24T13:51:22;26.50;61.50
9919;DHT22;4998;51.024;13.828;2023-06-24T13:53:52;26.60;61.20
9919;DHT22;4998;51.024;13.828;2023-06-24T13:56:20;26.70;60.90
9919;DHT22;4998;51.024;13.828;2023-06-24T13:58:48;26.70;61.00
9919;DHT22;4998;51.024;13.828;2023-06-24T14:01:15;26.80;60.80
9919;DHT22;4998;51.024;13.828;2023-06-24T14:03:42;26.80;60.50
9919;DHT22;4998;51.024;13.828;2023-06-24T14:06:09;26.80;60.20
9919;DHT22;4998;51.024;13.828;2023-06-24T14:08:36;26.90;59.40
9919;DHT22;4998;51.024;13.828;2023-06-24T14:11:05;26.90;59.40
9919;DHT22;4998;51.024;13.828;2023-06-24T14:13:32;27.00;59.00
9919;DHT22;4998;51.024;13.828;2023-06-24T14:15:59;27.00;58.80
9919;DHT22;4998;51.024;13.828;2023-06-24T14:18:26;27.00;58.30
9919;DHT22;4998;51.024;13.828;2023-06-24T14:20:53;27.00;58.30
9919;DHT22;4998;51.024;13.828;2023-06-24T14:23:20;27.00;58.20
9919;DHT22;4998;51.024;13.828;2023-06-24T14:25:47;27.10;58.40
9919;DHT22;4998;51.024;13.828;2023-06-24T14:28:15;27.10;58.40
9919;DHT22;4998;51.024;13.828;2023-06-24T14:30:42;27.20;57.70
9919;DHT22;4998;51.024;13.828;2023-06-24T14:33:11;27.30;58.10
9919;DHT22;4998;51.024;13.828;2023-06-24T14:35:38;27.30;57.90
9919;DHT22;4998;51.024;13.828;2023-06-24T14:38:05;27.40;57.60
9919;DHT22;4998;51.024;13.828;2023-06-24T14:40:32;27.40;56.90
9919;DHT22;4998;51.024;13.828;2023-06-24T14:43:00;27.50;56.60
9919;DHT22;4998;51.024;13.828;2023-06-24T14:45:28;27.60;56.60
9919;DHT22;4998;51.024;13.828;2023-06-24T14:47:55;27.60;56.60
9919;DHT22;4998;51.024;13.828;2023-06-24T14:50:22;27.70;56.70
9919;DHT22;4998;51.024;13.828;2023-06-24T14:52:49;27.70;56.60
9919;DHT22;4998;51.024;13.828;2023-06-24T14:55:16;27.80;56.40
9919;DHT22;4998;51.024;13.828;2023-06-24T14:57:43;27.80;56.20
9919;DHT22;4998;51.024;13.828;2023-06-24T15:00:12;27.90;56.10
9919;DHT22;4998;51.024;13.828;2023-06-24T15:02:40;27.90;55.80
9919;DHT22;4998;51.024;13.828;2023-06-24T15:05:08;28.00;55.20
9919;DHT22;4998;51.024;13.828;2023-06-24T15:07:35;28.10;55.40
9919;DHT22;4998;51.024;13.828;2023-06-24T15:10:04;28.10;55.30
9919;DHT22;4998;51.024;13.828;2023-06-24T15:12:31;28.20;55.10
9919;DHT22;4998;51.024;13.828;2023-06-24T15:15:00;28.20;55.10
9919;DHT22;4998;51.024;13.828;2023-06-24T15:17:27;28.30;54.60
9919;DHT22;4998;51.024;13.828;2023-06-24T15:19:56;28.30;54.00
9919;DHT22;4998;51.024;13.828;2023-06-24T15:22:23;28.40;53.80
9919;DHT22;4998;51.024;13.828;2023-06-24T15:24:50;28.40;53.60
9919;DHT22;4998;51.024;13.828;2023-06-24T15:27:17;28.50;53.80
9919;DHT22;4998;51.024;13.828;2023-06-24T15:29:44;28.50;53.80
9919;DHT22;4998;51.024;13.828;2023-06-24T15:32:11;28.60;54.10
9919;DHT22;4998;51.024;13.828;2023-06-24T15:34:38;28.70;53.90
9919;DHT22;4998;51.024;13.828;2023-06-24T15:37:07;28.80;54.00
9919;DHT22;4998;51.024;13.828;2023-06-24T15:39:34;28.90;53.30
9919;DHT22;4998;51.024;13.828;2023-06-24T15:42:01;28.90;52.50
9919;DHT22;4998;51.024;13.828;2023-06-24T15:44:28;28.90;52.40
9919;DHT22;4998;51.024;13.828;2023-06-24T15:46:56;28.90;52.20
9919;DHT22;4998;51.024;13.828;2023-06-24T15:49:23;28.90;52.10
9919;DHT22;4998;51.024;13.828;2023-06-24T15:51:50;28.90;52.10
9919;DHT22;4998;51.024;13.828;2023-06-24T15:54:18;28.90;52.20